Time;durP1;ratioP1;P1;durP2;ratioP2;P2;SDS_P1;SDS_P2;PMS_P1;PMS_P2;Temp;Humidity;BMP_temperature;BMP_pressure;BME280_temperature;BME280_humidity;BME280_pressure;Samples;Min_cycle;Max_cycle;Signal;HPM_P1;HPM_P2
2021/12/18 00:02:01;;;;;;;20.10;3.50;;;;;;;1.84;88.73;101139.45;104185;1316;24261;-31
2021/12/18 00:04:27;;;;;;;20.70;2.70;;;;;;;1.70;88.90;101138.95;104052;1314;22455;-30
2021/12/18 00:06:52;;;;;;;0.90;0.50;;;;;;;1.72;88.81;101141.27;104144;1310;24159;-27
2021/12/18 00:09:18;;;;;;;5.00;2.80;;;;;;;1.77;88.20;101147.48;103991;1305;22435;-26
2021/12/18 00:11:45;;;;;;;9.90;2.30;;;;;;;1.78;88.38;101147.23;103986;1313;22465;-28
2021/12/18 00:14:11;;;;;;;8.60;3.40;;;;;;;1.80;88.42;101147.50;104193;1316;24105;-27
2021/12/18 00:16:37;;;;;;;7.40;2.50;;;;;;;1.76;88.14;101148.45;103989;1313;23713;-31
2021/12/18 00:19:06;;;;;;;5.70;3.10;;;;;;;1.81;88.59;101153.95;103910;1314;24210;-31
2021/12/18 00:21:36;;;;;;;12.70;3.30;;;;;;;1.84;87.86;101153.79;104346;1307;24205;-26
2021/12/18 00:24:04;;;;;;;15.90;2.50;;;;;;;1.78;88.10;101152.20;103926;1314;24204;-31
2021/12/18 00:26:30;;;;;;;6.60;2.50;;;;;;;1.76;88.42;101152.34;104143;1313;22554;-31
2021/12/18 00:28:56;;;;;;;5.90;2.10;;;;;;;1.79;88.37;101153.89;104183;1314;23859;-27
2021/12/18 00:31:22;;;;;;;7.20;2.50;;;;;;;1.75;88.34;101153.98;104108;1313;22584;-27
2021/12/18 00:33:48;;;;;;;5.50;3.20;;;;;;;1.62;88.24;101155.20;104009;1314;22545;-31
2021/12/18 00:36:14;;;;;;;7.30;2.30;;;;;;;1.73;88.22;101155.52;103931;1314;24218;-27
2021/12/18 00:38:41;;;;;;;8.90;2.80;;;;;;;1.72;88.06;101156.29;103882;1312;22587;-29
2021/12/18 00:43:37;;;;;;;9.40;2.60;;;;;;;1.81;88.18;101164.88;104129;1314;24243;-27
2021/12/18 00:46:04;;;;;;;6.90;1.70;;;;;;;1.75;88.48;101168.46;104198;1314;22438;-27
2021/12/18 00:48:30;;;;;;;5.10;2.00;;;;;;;1.70;88.54;101171.77;104019;1314;22449;-31
2021/12/18 00:50:56;;;;;;;4.70;3.00;;;;;;;1.85;88.28;101180.55;103979;1314;22479;-31
2021/12/18 00:53:22;;;;;;;7.70;2.50;;;;;;;1.77;88.31;101182.64;104016;1310;22574;-30
2021/12/18 00:55:50;;;;;;;16.20;3.00;;;;;;;1.66;87.96;101180.34;104211;1314;22865;-30
2021/12/18 00:58:15;;;;;;;14.50;4.10;;;;;;;1.66;87.95;101188.64;104199;1313;22442;-30
2021/12/18 01:00:42;;;;;;;7.70;1.50;;;;;;;1.74;88.16;101189.56;103622;1313;24132;-30
2021/12/18 01:03:16;;;;;;;4.50;2.10;;;;;;;1.73;88.33;101187.48;103876;1314;24147;-26
2021/12/18 01:05:43;;;;;;;11.10;2.40;;;;;;;1.78;88.06;101181.52;103845;1304;23814;-26
2021/12/18 01:08:09;;;;;;;5.40;2.10;;;;;;;1.78;87.91;101188.27;103878;1314;22436;-26
2021/12/18 01:10:54;;;;;;;12.00;1.80;;;;;;;1.78;87.83;101192.99;103866;1313;24151;-30
2021/12/18 01:13:25;;;;;;;14.30;2.80;;;;;;;1.68;88.42;101181.46;103841;1304;24354;-26
2021/12/18 01:15:54;;;;;;;6.80;3.90;;;;;;;1.78;88.50;101189.84;103635;1314;24239;-26
2021/12/18 01:23:18;;;;;;;7.30;1.70;;;;;;;1.76;88.12;101195.08;103880;1314;22491;-30
2021/12/18 01:25:44;;;;;;;2.80;1.70;;;;;;;1.80;87.79;101200.81;103697;1316;22583;-30
2021/12/18 01:28:10;;;;;;;13.80;2.30;;;;;;;1.77;88.11;101199.95;103950;1316;24121;-28
2021/12/18 01:30:36;;;;;;;4.00;1.30;;;;;;;1.82;87.81;101197.89;103873;1314;24148;-27
2021/12/18 01:33:02;;;;;;;13.60;2.00;;;;;;;1.56;86.79;101194.92;103928;1314;24170;-26
2021/12/18 01:35:28;;;;;;;4.20;1.70;;;;;;;1.82;86.80;101200.85;103742;1314;24132;-30
2021/12/18 01:37:55;;;;;;;14.00;2.80;;;;;;;1.66;87.08;101202.59;103789;1313;22893;-27
2021/12/18 01:40:22;;;;;;;12.80;2.20;;;;;;;1.64;86.99;101211.02;103787;1314;24258;-26
2021/12/18 01:52:45;;;;;;;14.80;2.30;;;;;;;1.69;86.45;101183.50;103668;1313;22673;-30
2021/12/18 01:55:11;;;;;;;12.90;2.80;;;;;;;1.75;87.13;101177.86;103801;1304;22755;-28
2021/12/18 01:57:37;;;;;;;11.20;4.10;;;;;;;1.76;87.58;101174.57;103811;1314;24207;-30
2021/12/18 02:00:15;;;;;;;9.40;4.10;;;;;;;1.82;88.00;101175.28;103669;1316;24108;-30
2021/12/18 02:02:41;;;;;;;11.40;4.60;;;;;;;1.72;89.41;101173.42;103834;1314;22767;-30
2021/12/18 02:05:07;;;;;;;19.20;5.20;;;;;;;1.76;89.48;101174.92;103892;1305;24321;-26
2021/12/18 02:07:33;;;;;;;22.10;4.00;;;;;;;1.66;90.03;101182.66;103807;1313;24153;-30
2021/12/18 02:10:05;;;;;;;18.40;4.30;;;;;;;1.70;90.06;101179.57;103877;1302;22779;-30
2021/12/18 02:20:25;;;;;;;15.90;4.10;;;;;;;1.59;90.18;101199.50;103702;1314;23810;-26
2021/12/18 02:22:54;;;;;;;25.60;5.20;;;;;;;1.64;90.22;101194.25;103773;1314;23780;-26
2021/12/18 02:25:22;;;;;;;14.50;5.00;;;;;;;1.59;90.75;101190.87;103925;1302;22745;-26
2021/12/18 02:27:49;;;;;;;23.40;4.90;;;;;;;1.62;90.55;101195.02;103785;1314;24159;-30
2021/12/18 02:30:16;;;;;;;9.70;4.30;;;;;;;1.59;90.43;101190.48;103901;1310;24183;-30
2021/12/18 02:32:43;;;;;;;28.50;4.80;;;;;;;1.59;90.42;101189.73;103804;1310;24238;-26
2021/12/18 02:35:10;;;;;;;15.20;5.10;;;;;;;1.53;90.63;101188.55;103944;1314;22794;-30
2021/12/18 02:37:40;;;;;;;9.00;4.50;;;;;;;1.57;90.68;101185.30;103996;1314;24172;-27
2021/12/18 02:42:41;;;;;;;4.30;2.20;;;;;;;1.50;91.25;101180.13;103996;1310;24214;-26
2021/12/18 02:45:08;;;;;;;18.20;4.70;;;;;;;1.52;91.44;101176.11;103838;1316;22545;-30
2021/12/18 02:47:34;;;;;;;22.60;5.00;;;;;;;1.48;91.63;101172.79;103862;1313;24159;-27
2021/12/18 02:50:00;;;;;;;11.90;5.50;;;;;;;1.53;91.42;101173.02;103981;1313;22560;-26
2021/12/18 02:52:28;;;;;;;15.70;5.10;;;;;;;1.50;91.54;101171.13;103770;1308;24132;-29
2021/12/18 02:54:53;;;;;;;10.40;5.30;;;;;;;1.52;91.62;101168.30;103741;1314;22722;-30
2021/12/18 02:57:19;;;;;;;6.10;4.10;;;;;;;1.45;91.56;101168.80;103551;1310;22474;-30
2021/12/18 02:59:47;;;;;;;26.10;4.50;;;;;;;1.45;91.54;101175.14;103788;1314;22466;-26
2021/12/18 03:02:14;;;;;;;21.70;4.90;;;;;;;1.50;91.53;101176.71;104047;1314;24378;-30
2021/12/18 03:04:42;;;;;;;16.00;5.80;;;;;;;1.43;91.48;101175.44;103802;1310;24148;-30
2021/12/18 03:07:10;;;;;;;13.00;3.90;;;;;;;1.41;91.79;101177.83;103790;1314;24236;-30
2021/12/18 03:27:16;;;;;;;14.80;3.90;;;;;;;1.44;91.30;101163.16;103970;1314;22847;-30
2021/12/18 03:29:41;;;;;;;7.10;4.30;;;;;;;1.40;90.85;101159.73;103857;1314;24235;-26
2021/12/18 03:32:07;;;;;;;5.70;3.60;;;;;;;1.32;90.98;101165.33;103978;1314;22773;-26
2021/12/18 03:34:33;;;;;;;17.20;5.00;;;;;;;1.41;91.05;101164.21;103993;1314;24113;-26
2021/12/18 03:37:00;;;;;;;23.90;3.50;;;;;;;1.41;91.13;101173.04;103656;1314;22464;-26
2021/12/18 03:39:26;;;;;;;10.60;3.70;;;;;;;1.48;90.95;101173.02;103895;1310;24256;-29
2021/12/18 03:41:53;;;;;;;21.90;4.90;;;;;;;1.43;91.18;101175.41;103823;1314;24305;-30
2021/12/18 03:44:19;;;;;;;19.30;4.90;;;;;;;1.41;91.44;101176.21;103799;1313;24193;-30
2021/12/18 03:46:45;;;;;;;11.70;4.60;;;;;;;1.44;91.28;101170.58;103880;1314;24259;-30
2021/12/18 03:49:11;;;;;;;8.60;3.80;;;;;;;1.45;91.80;101167.02;103790;1314;22448;-30
2021/12/18 03:51:37;;;;;;;12.00;3.70;;;;;;;1.36;91.86;101161.54;103769;1313;24196;-26
2021/12/18 03:54:03;;;;;;;15.60;3.80;;;;;;;1.41;92.24;101156.30;103700;1314;23910;-26
2021/12/18 03:56:28;;;;;;;9.40;4.50;;;;;;;1.36;92.46;101155.89;103751;1314;24148;-30
2021/12/18 03:58:54;;;;;;;21.80;5.60;;;;;;;1.44;92.22;101153.11;103406;1310;466548;-30
2021/12/18 04:01:20;;;;;;;12.40;4.20;;;;;;;1.41;92.66;101153.30;103581;1310;24145;-30
2021/12/18 04:03:47;;;;;;;23.20;4.60;;;;;;;1.42;92.64;101155.86;103887;1314;24113;-26
2021/12/18 04:06:12;;;;;;;14.30;3.90;;;;;;;1.27;93.27;101157.15;103694;1311;24296;-30
2021/12/18 04:08:38;;;;;;;11.40;4.00;;;;;;;1.25;93.98;101158.88;103810;1314;24172;-26
2021/12/18 04:11:04;;;;;;;18.50;7.00;;;;;;;1.28;93.95;101160.46;103791;1314;24139;-30
2021/12/18 04:13:31;;;;;;;5.10;2.80;;;;;;;1.20;94.21;101159.88;103735;1313;24203;-26
2021/12/18 04:15:57;;;;;;;17.60;5.10;;;;;;;1.33;93.92;101165.10;103899;1314;24370;-27
2021/12/18 04:18:23;;;;;;;12.60;5.30;;;;;;;1.25;94.02;101165.77;103650;1314;22472;-30
2021/12/18 04:20:48;;;;;;;14.90;6.80;;;;;;;1.25;94.12;101163.47;103786;1306;24674;-26
2021/12/18 04:23:14;;;;;;;13.60;5.80;;;;;;;1.20;94.31;101158.63;103699;1314;22454;-30
2021/12/18 04:25:40;;;;;;;9.50;4.40;;;;;;;1.29;94.02;101159.13;103804;1310;24166;-26
2021/12/18 04:28:06;;;;;;;11.30;3.50;;;;;;;1.28;94.03;101155.15;103791;1310;24100;-28
2021/12/18 04:30:33;;;;;;;21.00;6.90;;;;;;;1.26;93.97;101144.33;103673;1307;24123;-30
2021/12/18 04:32:58;;;;;;;15.80;6.90;;;;;;;1.21;94.33;101144.84;103688;1314;24303;-30
2021/12/18 04:35:24;;;;;;;10.10;4.60;;;;;;;1.22;94.42;101142.48;103553;1314;24148;-30
2021/12/18 04:37:50;;;;;;;12.10;4.80;;;;;;;1.26;93.92;101138.17;103798;1307;24155;-26
2021/12/18 04:40:16;;;;;;;5.90;3.40;;;;;;;1.24;93.66;101136.70;103691;1314;24399;-26
2021/12/18 04:42:42;;;;;;;18.60;5.40;;;;;;;1.30;93.46;101133.51;103819;1311;24207;-28
2021/12/18 04:45:08;;;;;;;6.20;3.80;;;;;;;1.20;93.73;101142.75;103752;1314;23259;-30
2021/12/18 04:47:34;;;;;;;14.70;5.50;;;;;;;1.19;93.83;101143.84;103572;1313;24303;-30
2021/12/18 04:50:00;;;;;;;11.40;5.10;;;;;;;1.16;93.85;101144.77;103728;1314;24292;-26
2021/12/18 04:52:25;;;;;;;7.90;5.20;;;;;;;1.20;93.35;101146.98;103670;1314;24136;-30
2021/12/18 04:54:52;;;;;;;13.90;5.50;;;;;;;1.20;93.70;101149.48;103836;1313;22437;-26
2021/12/18 04:57:18;;;;;;;12.50;4.60;;;;;;;1.15;93.48;101151.50;103779;1311;24260;-26
2021/12/18 04:59:44;;;;;;;14.10;4.60;;;;;;;1.20;93.23;101149.29;103841;1313;24136;-30
2021/12/18 05:02:11;;;;;;;10.50;4.60;;;;;;;1.25;92.92;101140.67;103761;1310;24132;-27
2021/12/18 05:04:38;;;;;;;20.70;4.80;;;;;;;1.17;92.97;101139.40;103802;1302;22720;-26
2021/12/18 05:07:04;;;;;;;5.20;4.00;;;;;;;1.20;93.18;101142.56;103802;1304;24360;-26
2021/12/18 05:09:30;;;;;;;13.30;5.10;;;;;;;1.19;93.37;101141.08;103706;1314;24348;-27
2021/12/18 05:11:56;;;;;;;9.30;4.60;;;;;;;1.16;93.58;101139.44;103717;1314;24136;-30
2021/12/18 05:14:22;;;;;;;10.80;3.10;;;;;;;1.20;93.70;101145.04;103770;1313;22583;-30
2021/12/18 05:16:48;;;;;;;13.70;3.70;;;;;;;1.19;93.52;101140.35;103762;1307;22717;-26
2021/12/18 05:19:14;;;;;;;7.00;3.10;;;;;;;1.21;93.47;101136.04;103801;1314;24151;-27
2021/12/18 05:21:40;;;;;;;7.20;3.80;;;;;;;1.32;93.26;101135.33;103768;1311;24248;-26
2021/12/18 05:24:06;;;;;;;17.20;5.90;;;;;;;1.23;93.45;101140.81;103824;1314;24096;-30
2021/12/18 05:26:32;;;;;;;11.70;3.40;;;;;;;1.20;93.87;101143.45;103526;1314;24158;-30
2021/12/18 05:28:58;;;;;;;12.70;5.50;;;;;;;1.25;93.83;101142.80;103779;1301;22826;-26
2021/12/18 05:31:23;;;;;;;15.50;4.10;;;;;;;1.27;93.96;101142.48;103710;1314;24155;-26
2021/12/18 05:33:53;;;;;;;13.50;5.00;;;;;;;1.29;93.62;101139.04;103646;1308;24447;-30
2021/12/18 05:38:48;;;;;;;4.90;3.60;;;;;;;1.37;92.43;101131.15;103677;1314;24157;-30
2021/12/18 05:41:14;;;;;;;12.00;3.90;;;;;;;1.37;93.03;101131.31;103660;1314;22457;-26
2021/12/18 05:43:39;;;;;;;10.90;2.30;;;;;;;1.50;91.88;101132.39;103695;1310;24145;-30
2021/12/18 05:46:05;;;;;;;3.70;2.50;;;;;;;1.61;91.10;101128.38;103654;1314;22548;-26
2021/12/18 05:48:31;;;;;;;12.30;3.00;;;;;;;1.44;91.89;101126.80;103697;1311;24296;-26
2021/12/18 05:50:57;;;;;;;12.20;3.10;;;;;;;1.44;91.80;101125.59;103723;1307;24153;-30
2021/12/18 05:53:22;;;;;;;6.90;3.20;;;;;;;1.61;91.09;101131.02;103695;1314;24269;-30
2021/12/18 05:55:48;;;;;;;9.30;2.80;;;;;;;1.63;90.63;101134.08;103869;1314;24328;-30
2021/12/18 05:58:14;;;;;;;6.50;3.20;;;;;;;1.50;91.20;101130.12;103721;1314;24159;-30
2021/12/18 06:00:40;;;;;;;13.40;3.70;;;;;;;1.56;91.32;101129.60;103837;1305;24121;-30
2021/12/18 06:03:06;;;;;;;7.50;4.70;;;;;;;1.45;91.43;101132.93;103661;1313;24263;-28
2021/12/18 06:05:31;;;;;;;10.90;4.60;;;;;;;1.40;91.56;101128.48;103447;1310;24354;-28
2021/12/18 06:07:58;;;;;;;35.20;2.80;;;;;;;1.33;92.16;101134.86;103643;1310;24199;-30
2021/12/18 06:10:28;;;;;;;13.70;5.40;;;;;;;1.28;92.32;101142.11;103752;1314;22795;-30
2021/12/18 06:12:55;;;;;;;16.10;7.60;;;;;;;1.30;92.59;101150.42;103853;1314;23845;-26
2021/12/18 06:15:21;;;;;;;11.20;5.10;;;;;;;1.41;91.89;101153.27;103944;1314;22497;-30
2021/12/18 06:17:47;;;;;;;8.40;4.60;;;;;;;1.25;92.45;101155.70;103719;1302;22563;-26
2021/12/18 06:20:13;;;;;;;13.60;4.20;;;;;;;1.35;92.49;101157.52;103682;1298;22706;-26
2021/12/18 06:22:39;;;;;;;18.50;4.30;;;;;;;1.58;91.62;101161.28;103636;1314;24135;-26
2021/12/18 06:25:06;;;;;;;9.60;3.00;;;;;;;1.48;92.08;101164.35;103908;1310;22714;-26
2021/12/18 06:27:31;;;;;;;7.60;3.70;;;;;;;1.63;91.34;101162.35;103805;1314;24152;-27
2021/12/18 06:29:58;;;;;;;17.50;5.20;;;;;;;1.62;91.21;101163.09;103682;1313;24288;-26
2021/12/18 06:32:24;;;;;;;21.60;5.40;;;;;;;1.35;92.79;101168.64;103818;1314;24152;-26
2021/12/18 06:34:50;;;;;;;14.40;3.70;;;;;;;1.31;93.23;101164.98;103690;1313;22611;-27
2021/12/18 06:37:16;;;;;;;26.20;7.30;;;;;;;1.33;92.81;101157.29;103754;1302;22931;-26
2021/12/18 06:39:42;;;;;;;8.00;3.00;;;;;;;1.31;92.61;101156.71;103658;1305;24113;-27
2021/12/18 06:42:08;;;;;;;12.00;4.90;;;;;;;1.53;91.83;101161.73;103505;1311;24293;-30
2021/12/18 06:44:33;;;;;;;14.60;5.10;;;;;;;1.51;91.33;101162.52;103668;1313;24275;-26
2021/12/18 06:46:59;;;;;;;20.30;6.50;;;;;;;1.47;91.89;101162.13;103729;1314;24231;-31
2021/12/18 06:49:25;;;;;;;18.10;5.90;;;;;;;1.61;91.37;101152.90;103639;1303;24213;-27
2021/12/18 06:51:50;;;;;;;17.90;3.40;;;;;;;1.72;90.42;101149.61;103686;1314;24133;-31
2021/12/18 06:54:16;;;;;;;4.30;2.10;;;;;;;1.51;91.07;101141.73;103679;1314;24186;-30
2021/12/18 06:56:42;;;;;;;20.10;6.00;;;;;;;1.57;91.17;101137.14;103657;1310;24302;-31
2021/12/18 06:59:08;;;;;;;9.60;6.40;;;;;;;1.43;91.68;101134.77;103667;1310;22624;-31
2021/12/18 07:01:35;;;;;;;16.10;4.40;;;;;;;1.46;91.44;101131.63;103673;1310;22737;-31
2021/12/18 07:04:00;;;;;;;17.10;6.20;;;;;;;1.52;91.21;101126.67;103614;1314;22733;-27
2021/12/18 07:06:26;;;;;;;13.40;7.50;;;;;;;1.72;90.04;101124.00;103854;1311;24127;-26
2021/12/18 07:08:52;;;;;;;26.70;9.20;;;;;;;1.77;89.30;101122.93;103723;1313;22812;-31
2021/12/18 07:11:18;;;;;;;34.60;11.50;;;;;;;1.56;89.78;101118.08;103855;1310;24206;-27
2021/12/18 07:13:44;;;;;;;8.30;5.00;;;;;;;1.74;89.19;101117.86;103884;1313;24154;-31
2021/12/18 07:16:09;;;;;;;11.70;5.00;;;;;;;1.64;89.15;101113.55;103865;1313;24133;-30
2021/12/18 07:18:35;;;;;;;10.70;4.70;;;;;;;1.61;89.49;101112.19;103434;1314;24261;-30
2021/12/18 07:21:01;;;;;;;10.60;4.10;;;;;;;1.93;88.14;101121.77;103683;1310;24187;-31
2021/12/18 07:23:27;;;;;;;16.50;6.30;;;;;;;1.82;88.48;101124.39;103879;1314;22828;-29
2021/12/18 07:25:53;;;;;;;10.80;3.80;;;;;;;2.07;87.73;101123.73;103878;1314;24159;-27
2021/12/18 07:28:18;;;;;;;16.50;7.10;;;;;;;1.88;88.09;101119.58;103711;1314;24203;-30
2021/12/18 07:30:44;;;;;;;30.80;6.60;;;;;;;1.86;88.56;101118.34;103678;1314;24143;-27
2021/12/18 07:33:11;;;;;;;14.70;5.60;;;;;;;1.85;88.36;101115.75;103504;1314;22721;-28
2021/12/18 07:35:38;;;;;;;8.70;4.60;;;;;;;1.80;88.54;101117.64;103703;1313;22465;-30
2021/12/18 07:38:05;;;;;;;8.80;4.00;;;;;;;1.82;88.37;101111.18;103705;1314;24263;-26
2021/12/18 07:40:31;;;;;;;4.40;2.80;;;;;;;1.88;88.04;101110.79;103670;1308;24213;-27
2021/12/18 07:42:57;;;;;;;5.40;3.90;;;;;;;1.97;86.36;101106.86;103713;1314;24159;-27
2021/12/18 07:45:23;;;;;;;9.50;5.70;;;;;;;2.06;85.88;101105.71;103705;1313;24182;-27
2021/12/18 07:47:48;;;;;;;12.60;5.90;;;;;;;1.96;86.12;101105.49;103702;1314;26312;-30
2021/12/18 07:50:18;;;;;;;13.10;6.80;;;;;;;1.83;87.45;101104.05;103632;1313;24144;-27
2021/12/18 07:52:46;;;;;;;18.50;6.70;;;;;;;1.76;87.64;101105.76;103677;1304;24148;-27
2021/12/18 07:55:11;;;;;;;13.40;5.20;;;;;;;1.94;86.77;101109.13;103734;1314;24309;-31
2021/12/18 07:57:37;;;;;;;13.40;8.50;;;;;;;2.06;86.10;101104.14;103710;1314;24195;-31
2021/12/18 08:00:05;;;;;;;32.10;6.80;;;;;;;1.98;86.24;101106.21;103473;1308;24191;-27
2021/12/18 08:02:31;;;;;;;11.30;6.50;;;;;;;2.14;86.22;101108.77;103666;1314;24159;-31
2021/12/18 08:04:57;;;;;;;9.00;4.90;;;;;;;2.11;86.32;101108.05;103769;1314;23001;-27
2021/12/18 08:07:22;;;;;;;12.80;6.50;;;;;;;1.87;87.35;101111.77;103948;1314;24397;-26
2021/12/18 08:09:49;;;;;;;10.90;5.90;;;;;;;1.96;87.31;101106.89;103871;1314;24129;-30
2021/12/18 08:12:14;;;;;;;7.40;5.10;;;;;;;1.91;87.68;101102.11;103658;1314;24166;-27
2021/12/18 08:14:40;;;;;;;10.20;5.70;;;;;;;2.03;86.88;101105.55;103578;1314;24102;-27
2021/12/18 08:17:05;;;;;;;6.30;3.40;;;;;;;1.93;87.11;101107.13;103717;1314;24187;-31
2021/12/18 08:19:31;;;;;;;6.50;2.30;;;;;;;1.99;87.25;101104.61;103667;1314;24246;-26
2021/12/18 08:21:57;;;;;;;8.90;4.20;;;;;;;1.98;87.18;101096.34;103765;1314;24161;-31
2021/12/18 08:24:23;;;;;;;5.00;3.80;;;;;;;2.18;85.70;101088.14;103713;1314;24301;-27
2021/12/18 08:26:49;;;;;;;12.60;6.00;;;;;;;1.94;86.30;101086.51;103661;1313;24287;-31
2021/12/18 08:29:14;;;;;;;19.30;5.30;;;;;;;2.23;85.65;101083.44;103667;1307;24242;-31
2021/12/18 08:31:40;;;;;;;9.30;5.30;;;;;;;1.94;86.90;101085.49;103692;1314;22547;-30
2021/12/18 08:34:06;;;;;;;7.30;4.50;;;;;;;1.98;86.75;101082.20;103725;1313;22663;-31
2021/12/18 08:36:32;;;;;;;4.50;3.50;;;;;;;2.29;85.78;101079.09;103715;1314;24095;-27
2021/12/18 08:38:58;;;;;;;6.90;3.80;;;;;;;2.26;85.53;101078.65;103693;1313;24410;-28
2021/12/18 08:41:24;;;;;;;11.00;4.40;;;;;;;2.37;84.96;101077.70;103825;1313;24303;-27
2021/12/18 08:43:50;;;;;;;21.30;7.40;;;;;;;2.16;85.87;101080.48;103722;1305;24214;-27
2021/12/18 08:46:16;;;;;;;12.50;6.50;;;;;;;2.17;86.17;101075.83;103490;1314;24234;-27
2021/12/18 08:48:42;;;;;;;6.50;3.20;;;;;;;2.02;86.83;101080.35;103663;1313;24301;-30
2021/12/18 08:51:08;;;;;;;5.80;3.10;;;;;;;1.90;87.42;101083.80;103643;1310;24132;-27
2021/12/18 08:53:34;;;;;;;13.80;5.00;;;;;;;2.08;87.04;101091.42;103718;1313;22474;-29
2021/12/18 08:55:59;;;;;;;7.90;2.50;;;;;;;2.46;84.98;101072.52;103939;1314;26055;-27
2021/12/18 08:58:25;;;;;;;3.50;2.00;;;;;;;2.25;85.62;101076.23;103751;1310;24671;-31
2021/12/18 09:00:51;;;;;;;7.70;4.00;;;;;;;2.18;86.57;101084.46;103986;1310;24124;-30
2021/12/18 09:03:17;;;;;;;9.40;5.70;;;;;;;2.23;86.74;101085.90;103782;1306;23700;-28
2021/12/18 09:05:43;;;;;;;16.70;4.70;;;;;;;2.27;86.44;101087.59;103733;1314;24372;-30
2021/12/18 09:08:09;;;;;;;10.40;4.80;;;;;;;1.96;88.14;101086.98;103748;1314;24180;-26
2021/12/18 09:10:35;;;;;;;12.30;4.80;;;;;;;1.95;88.44;101081.71;103958;1314;24126;-31
2021/12/18 09:13:01;;;;;;;7.30;3.50;;;;;;;2.37;86.47;101082.98;103995;1310;22448;-31
2021/12/18 09:15:27;;;;;;;12.00;4.10;;;;;;;2.09;87.32;101082.92;103711;1313;24968;-27
2021/12/18 09:17:54;;;;;;;13.40;5.10;;;;;;;2.34;86.60;101078.75;103775;1304;22756;-25
2021/12/18 09:20:19;;;;;;;6.60;2.80;;;;;;;1.85;88.39;101078.99;103725;1313;24279;-28
2021/12/18 09:22:45;;;;;;;7.00;3.50;;;;;;;1.73;89.59;101086.98;103758;1314;24148;-29
2021/12/18 09:25:11;;;;;;;22.30;4.50;;;;;;;1.69;90.61;101074.73;103437;1310;24153;-25
2021/12/18 09:27:37;;;;;;;6.60;2.70;;;;;;;2.12;88.69;101065.21;103806;1314;24378;-26
2021/12/18 09:30:05;;;;;;;7.90;3.80;;;;;;;2.19;88.15;101064.42;103699;1314;22437;-26
2021/12/18 09:32:31;;;;;;;5.00;3.60;;;;;;;2.09;87.93;101070.36;103677;1313;23001;-30
2021/12/18 09:34:57;;;;;;;10.00;4.10;;;;;;;1.79;89.62;101071.79;103897;1311;24187;-30
2021/12/18 09:37:23;;;;;;;5.20;3.30;;;;;;;2.00;89.41;101071.49;103682;1314;24121;-30
2021/12/18 09:39:49;;;;;;;13.00;3.30;;;;;;;2.20;88.78;101066.14;103713;1314;24319;-26
2021/12/18 09:42:14;;;;;;;5.00;3.30;;;;;;;2.03;88.53;101064.90;103855;1311;24273;-26
2021/12/18 09:44:40;;;;;;;10.50;4.90;;;;;;;2.04;89.38;101058.34;103769;1310;24159;-30
2021/12/18 09:47:06;;;;;;;5.70;3.60;;;;;;;2.50;87.32;101045.35;103980;1313;24450;-30
2021/12/18 09:49:32;;;;;;;9.90;5.10;;;;;;;2.30;87.73;101051.14;103837;1314;24201;-30
2021/12/18 09:51:59;;;;;;;6.00;2.40;;;;;;;2.44;87.10;101048.57;104029;1314;22566;-27
2021/12/18 09:54:25;;;;;;;7.70;4.70;;;;;;;1.98;88.62;101047.08;103829;1310;24263;-27
2021/12/18 09:56:51;;;;;;;4.40;2.40;;;;;;;2.09;88.42;101043.17;103688;1314;24303;-28
2021/12/18 09:59:17;;;;;;;7.80;4.10;;;;;;;2.77;84.92;101036.05;103701;1314;24140;-29
2021/12/18 10:01:43;;;;;;;2.80;1.30;;;;;;;2.37;85.96;101036.17;103637;1307;24239;-30
2021/12/18 10:04:16;;;;;;;7.50;2.90;;;;;;;2.26;87.46;101047.15;103724;1314;24246;-29
2021/12/18 10:06:44;;;;;;;7.30;5.20;;;;;;;2.17;87.64;101038.55;103790;1316;23236;-25
2021/12/18 10:09:12;;;;;;;13.60;4.80;;;;;;;2.36;86.54;101022.14;103707;1314;22465;-26
2021/12/18 10:11:44;;;;;;;8.30;5.10;;;;;;;2.35;86.57;101021.25;103725;1314;24272;-29
2021/12/18 10:14:10;;;;;;;9.10;3.80;;;;;;;2.35;87.05;101021.27;103747;1314;24245;-26
2021/12/18 10:16:46;;;;;;;13.30;5.10;;;;;;;2.23;87.31;101020.66;103685;1314;24179;-31
2021/12/18 10:19:20;;;;;;;12.60;5.90;;;;;;;2.18;88.35;101018.19;103726;1314;24121;-31
2021/12/18 10:21:55;;;;;;;4.90;3.10;;;;;;;2.36;87.52;101006.00;103791;1314;23866;-33
2021/12/18 10:24:21;;;;;;;11.20;5.70;;;;;;;2.39;87.27;101006.70;103728;1314;22534;-27
2021/12/18 10:26:47;;;;;;;27.30;9.20;;;;;;;2.26;87.90;101005.61;103774;1312;24135;-27
2021/12/18 10:29:20;;;;;;;23.30;7.30;;;;;;;2.26;88.05;101007.77;103712;1314;24415;-28
2021/12/18 10:31:45;;;;;;;11.80;5.80;;;;;;;2.86;85.43;100996.70;103727;1316;22590;-24
2021/12/18 10:34:14;;;;;;;15.00;5.20;;;;;;;2.73;84.31;100993.70;103708;1304;24264;-25
2021/12/18 10:36:39;;;;;;;11.80;6.20;;;;;;;2.53;85.55;100987.31;104008;1314;22917;-27
2021/12/18 10:39:17;;;;;;;15.80;6.20;;;;;;;2.24;87.05;100990.59;104679;1314;22560;-31
2021/12/18 10:41:45;;;;;;;6.40;4.30;;;;;;;2.27;87.04;100993.35;103954;1299;23783;-25
2021/12/18 10:44:12;;;;;;;10.80;3.80;;;;;;;2.39;86.64;100997.14;103788;1305;22585;-29
2021/12/18 10:46:40;;;;;;;19.10;4.30;;;;;;;2.32;86.51;100996.52;104137;1305;24242;-30
2021/12/18 10:49:08;;;;;;;12.60;5.40;;;;;;;2.03;87.94;101003.25;104163;1314;22559;-31
2021/12/18 10:51:34;;;;;;;9.10;5.20;;;;;;;1.95;88.74;100998.69;104082;1313;25406;-25
2021/12/18 10:54:00;;;;;;;8.90;5.10;;;;;;;2.02;88.88;100988.87;103797;1314;24248;-26
2021/12/18 10:56:32;;;;;;;8.90;3.80;;;;;;;2.14;87.71;100988.93;103829;1314;24203;-26
2021/12/18 10:58:58;;;;;;;6.90;4.30;;;;;;;2.33;87.40;100986.06;103816;1313;25418;-30
2021/12/18 11:01:23;;;;;;;6.80;4.10;;;;;;;2.28;87.50;100983.76;103729;1307;24388;-30
2021/12/18 11:03:50;;;;;;;6.10;4.00;;;;;;;2.63;85.95;100979.75;103838;1314;22786;-26
2021/12/18 11:06:16;;;;;;;11.00;4.40;;;;;;;2.42;86.74;100980.33;103778;1313;24220;-29
2021/12/18 11:08:51;;;;;;;5.90;3.80;;;;;;;2.55;85.37;100969.50;103629;1314;24398;-28
2021/12/18 11:13:48;;;;;;;10.20;4.50;;;;;;;2.33;86.64;100957.23;103720;1310;24197;-29
2021/12/18 11:16:16;;;;;;;10.60;7.00;;;;;;;2.58;86.35;100953.38;103780;1306;22508;-29
2021/12/18 11:18:43;;;;;;;6.10;3.20;;;;;;;2.77;85.02;100950.67;103524;1314;24288;-30
2021/12/18 11:21:09;;;;;;;5.40;4.00;;;;;;;2.53;85.26;100953.75;103742;1305;22532;-26
2021/12/18 11:23:39;;;;;;;10.00;4.50;;;;;;;2.12;87.51;100951.95;103810;1313;24173;-30
2021/12/18 11:26:10;;;;;;;3.80;3.10;;;;;;;2.25;87.23;100945.77;104091;1313;24327;-26
2021/12/18 11:28:37;;;;;;;26.50;9.90;;;;;;;2.43;86.26;100935.66;103742;1314;22512;-25
2021/12/18 11:31:03;;;;;;;12.60;7.20;;;;;;;2.35;86.86;100932.73;103652;1312;24302;-29
2021/12/18 11:33:30;;;;;;;11.40;7.20;;;;;;;2.65;85.72;100937.16;103825;1314;24188;-25
2021/12/18 11:35:57;;;;;;;26.90;11.30;;;;;;;2.60;85.52;100936.77;103696;1314;24203;-25
2021/12/18 11:38:23;;;;;;;7.60;6.20;;;;;;;2.38;86.83;100936.76;103710;1314;24222;-26
2021/12/18 11:40:49;;;;;;;12.40;7.30;;;;;;;2.43;87.28;100932.34;103740;1314;24261;-30
2021/12/18 11:43:22;;;;;;;6.70;5.30;;;;;;;2.48;87.37;100928.48;103658;1314;24330;-29
2021/12/18 11:45:47;;;;;;;23.40;7.70;;;;;;;2.67;86.49;100918.66;103646;1313;24419;-29
2021/12/18 11:48:13;;;;;;;12.40;5.40;;;;;;;2.60;87.04;100910.25;103639;1313;24137;-24
2021/12/18 11:50:39;;;;;;;21.00;11.90;;;;;;;2.42;87.89;100904.08;103659;1308;24149;-25
2021/12/18 11:53:08;;;;;;;12.60;5.60;;;;;;;2.40;88.12;100892.39;103646;1314;22438;-29
2021/12/18 11:55:37;;;;;;;14.60;7.80;;;;;;;2.24;89.33;100891.74;103645;1313;22491;-25
2021/12/18 11:58:07;;;;;;;9.80;6.30;;;;;;;2.20;89.56;100893.99;103330;1314;587745;-30
2021/12/18 12:00:36;;;;;;;24.30;9.40;;;;;;;2.38;89.19;100887.39;103656;1305;22462;-25
2021/12/18 12:03:03;;;;;;;38.50;11.20;;;;;;;2.23;89.75;100876.11;103922;1310;22446;-30
2021/12/18 12:05:33;;;;;;;26.50;11.40;;;;;;;1.78;92.07;100878.11;104130;1307;24227;-25
2021/12/18 12:08:20;;;;;;;35.00;14.10;;;;;;;2.14;91.55;100874.96;103928;1315;23921;-30